Time;durP1;ratioP1;P1;durP2;ratioP2;P2;SDS_P1;SDS_P2;PMS_P1;PMS_P2;Temp;Humidity;BMP_temperature;BMP_pressure;BME280_temperature;BME280_humidity;BME280_pressure;Samples;Min_cycle;Max_cycle;Signal;HPM_P1;HPM_P2
2023/12/06 00:00:20;;;;;;;6.38;5.85;;;;;;;1.49;100.00;100196.78;6116452;23;20116;-74
2023/12/06 00:02:47;;;;;;;5.82;5.43;;;;;;;1.46;100.00;100184.75;6074377;23;20087;-74
2023/12/06 00:05:13;;;;;;;8.10;5.18;;;;;;;2.23;100.00;100302.00;6107751;23;20096;-74
2023/12/06 00:07:40;;;;;;;4.75;4.05;;;;;;;-0.83;100.00;99823.16;6078911;23;20539;-74
2023/12/06 00:10:07;;;;;;;10.40;6.35;;;;;;;2.11;100.00;100303.13;6113752;23;20087;-75
2023/12/06 00:12:33;;;;;;;7.68;6.85;;;;;;;1.72;100.00;100222.09;6076796;23;20363;-75
2023/12/06 00:15:00;;;;;;;5.82;5.40;;;;;;;1.37;100.00;100177.22;6104810;23;20040;-75
2023/12/06 00:17:26;;;;;;;5.75;5.25;;;;;;;1.34;100.00;100177.28;6083154;23;20033;-74
2023/12/06 00:19:52;;;;;;;6.03;5.43;;;;;;;0.87;100.00;100083.59;6105337;23;20535;-75
2023/12/06 00:22:19;;;;;;;14.10;5.38;;;;;;;2.05;100.00;100273.97;6082798;23;20085;-74
2023/12/06 00:24:45;;;;;;;5.03;4.63;;;;;;;1.99;100.00;100262.00;6103014;23;20084;-74
2023/12/06 00:27:12;;;;;;;4.53;4.30;;;;;;;1.53;100.00;100213.94;6079441;23;20728;-74
2023/12/06 00:29:39;;;;;;;11.15;5.88;;;;;;;1.10;100.00;100139.91;6105713;23;20025;-73
2023/12/06 00:32:05;;;;;;;7.00;6.32;;;;;;;1.38;100.00;100176.34;6078124;23;20037;-77
2023/12/06 00:34:31;;;;;;;5.65;5.32;;;;;;;0.73;100.00;100079.59;6108899;23;20557;-73
2023/12/06 00:36:58;;;;;;;5.45;5.05;;;;;;;1.76;100.00;100237.53;6077404;23;20030;-76
2023/12/06 00:39:24;;;;;;;4.00;3.80;;;;;;;1.41;100.00;100186.63;6111461;23;20020;-74
2023/12/06 00:41:51;;;;;;;6.65;5.97;;;;;;;1.39;100.00;100185.81;6078794;23;20034;-74
2023/12/06 00:44:18;;;;;;;4.72;4.22;;;;;;;1.37;100.00;100201.34;6103774;23;20063;-77
2023/12/06 00:46:45;;;;;;;9.90;7.15;;;;;;;1.56;100.00;100261.28;6078421;23;20045;-76
2023/12/06 00:49:12;;;;;;;6.47;5.57;;;;;;;1.86;100.00;100269.19;6083277;23;20029;-74
2023/12/06 00:51:39;;;;;;;8.98;4.70;;;;;;;0.85;100.00;100109.47;6078367;23;20481;-74
2023/12/06 00:54:06;;;;;;;4.45;4.22;;;;;;;1.26;100.00;100181.78;6105973;23;20021;-74
2023/12/06 00:56:32;;;;;;;6.13;5.75;;;;;;;1.18;100.00;100200.03;6077603;23;20445;-74
2023/12/06 00:58:59;;;;;;;6.20;5.68;;;;;;;1.21;100.00;100196.56;6109711;23;20729;-74
2023/12/06 01:01:25;;;;;;;5.97;5.53;;;;;;;0.62;100.00;100096.19;6075986;23;20030;-75
2023/12/06 01:03:52;;;;;;;7.25;6.75;;;;;;;0.99;100.00;100172.00;6109624;23;20017;-74
2023/12/06 01:06:18;;;;;;;4.95;4.50;;;;;;;0.68;100.00;100124.47;6081147;23;20072;-74
2023/12/06 01:08:45;;;;;;;7.25;6.60;;;;;;;1.71;100.00;100309.22;6098715;23;20021;-74
2023/12/06 01:11:11;;;;;;;4.88;4.25;;;;;;;1.55;100.00;100279.41;6080622;23;20018;-74
2023/12/06 01:13:37;;;;;;;6.68;4.75;;;;;;;0.10;100.00;100055.09;6104083;23;20016;-75
2023/12/06 01:16:04;;;;;;;5.90;5.18;;;;;;;1.03;100.00;100210.72;6080297;23;20418;-75
2023/12/06 01:18:31;;;;;;;8.27;7.60;;;;;;;1.67;100.00;100330.03;6100584;23;20451;-74
2023/12/06 01:20:57;;;;;;;8.82;5.25;;;;;;;1.30;100.00;100261.81;6080520;23;20022;-74
2023/12/06 01:23:23;;;;;;;5.22;4.30;;;;;;;0.76;100.00;100169.94;6113082;23;20033;-75
2023/12/06 01:25:50;;;;;;;6.18;5.78;;;;;;;1.77;100.00;100344.44;6078173;23;20020;-74
2023/12/06 01:28:16;;;;;;;4.80;4.45;;;;;;;1.25;100.00;100265.41;6105908;23;20836;-74
2023/12/06 01:30:43;;;;;;;8.00;7.28;;;;;;;1.72;100.00;100341.09;6073854;23;20030;-74
2023/12/06 01:33:09;;;;;;;7.90;7.15;;;;;;;1.58;100.00;100329.34;6104434;23;20041;-73
2023/12/06 01:35:36;;;;;;;5.25;4.90;;;;;;;1.18;100.00;100246.56;6081997;23;20102;-73
2023/12/06 01:38:02;;;;;;;5.97;5.50;;;;;;;1.67;100.00;100340.38;6104327;23;20048;-75
2023/12/06 01:40:29;;;;;;;10.32;5.95;;;;;;;1.36;100.00;100299.63;6078886;23;20033;-75
2023/12/06 01:42:55;;;;;;;19.45;7.88;;;;;;;1.07;100.00;100253.69;6105975;23;20057;-74
2023/12/06 01:45:22;;;;;;;12.98;6.72;;;;;;;1.71;100.00;100344.59;6082687;23;20030;-73
2023/12/06 01:47:51;;;;;;;6.88;6.20;;;;;;;1.73;100.00;100355.75;6110196;23;20763;-74
2023/12/06 01:50:18;;;;;;;8.15;7.35;;;;;;;0.51;100.00;100156.63;6078534;23;20029;-74
2023/12/06 01:52:45;;;;;;;8.02;7.25;;;;;;;1.37;100.00;100317.69;6103301;23;20027;-74
2023/12/06 01:55:12;;;;;;;7.47;6.78;;;;;;;1.18;100.00;100275.88;6074382;23;20022;-75
2023/12/06 01:57:40;;;;;;;6.35;5.88;;;;;;;1.45;100.00;100329.63;6108239;23;20033;-73
2023/12/06 02:00:07;;;;;;;10.55;7.07;;;;;;;1.61;100.00;100368.94;6058102;23;20024;-74
2023/12/06 02:02:34;;;;;;;16.42;8.27;;;;;;;1.08;100.00;100313.09;6098737;23;20029;-74
2023/12/06 02:05:01;;;;;;;7.35;6.72;;;;;;;1.08;100.00;100302.75;6080077;23;20091;-74
2023/12/06 02:07:29;;;;;;;6.18;5.72;;;;;;;0.93;100.00;100329.75;6081932;23;20025;-75
2023/12/06 02:09:56;;;;;;;13.55;7.53;;;;;;;1.00;100.00;100325.31;6080339;23;20032;-74
2023/12/06 02:12:22;;;;;;;7.00;5.78;;;;;;;0.96;100.00;100309.03;6105637;23;20044;-74
2023/12/06 02:14:49;;;;;;;10.50;6.38;;;;;;;0.76;100.00;100295.59;6072796;23;20041;-73
2023/12/06 02:17:18;;;;;;;7.57;6.50;;;;;;;-0.15;100.00;100132.06;6112927;23;20053;-76
2023/12/06 02:19:46;;;;;;;18.58;8.50;;;;;;;1.35;100.00;100385.81;6076387;23;20164;-74
2023/12/06 02:22:13;;;;;;;10.25;7.28;;;;;;;0.55;100.00;100255.56;6102562;23;20031;-74
2023/12/06 02:24:41;;;;;;;7.85;6.95;;;;;;;1.26;100.00;100384.25;6077150;23;20024;-74
2023/12/06 02:27:07;;;;;;;10.23;5.40;;;;;;;1.28;100.00;100379.91;6102228;23;20030;-73
2023/12/06 02:29:34;;;;;;;7.85;6.75;;;;;;;1.47;100.00;100410.59;6076327;23;20033;-75
2023/12/06 02:32:00;;;;;;;10.00;6.57;;;;;;;1.22;100.00;100381.75;6052350;23;20034;-75
2023/12/06 02:34:27;;;;;;;8.35;7.55;;;;;;;0.76;100.00;100304.22;6065297;23;20018;-75
2023/12/06 02:36:59;;;;;;;7.45;6.07;;;;;;;-0.97;100.00;100011.44;6101238;23;20017;-74
2023/12/06 02:39:34;;;;;;;10.68;6.07;;;;;;;1.52;100.00;100419.94;6095515;23;20516;-75
2023/12/06 02:42:01;;;;;;;12.38;9.90;;;;;;;1.08;100.00;100345.84;6084311;23;20614;-74
2023/12/06 02:44:27;;;;;;;4.90;4.47;;;;;;;0.33;100.00;100216.38;6073339;23;20014;-75
2023/12/06 02:46:55;;;;;;;14.82;6.40;;;;;;;1.00;100.00;100325.31;6114807;23;20031;-74
2023/12/06 02:49:21;;;;;;;6.45;5.90;;;;;;;1.55;100.00;100398.38;6080538;23;20026;-75
2023/12/06 02:51:48;;;;;;;5.00;4.65;;;;;;;-0.01;100.00;100155.03;6111766;23;20696;-75
2023/12/06 02:54:14;;;;;;;5.45;5.05;;;;;;;0.97;100.00;100294.38;6081433;23;20034;-75
2023/12/06 02:56:40;;;;;;;10.07;7.35;;;;;;;-0.09;100.00;100131.94;6107188;23;20032;-75
2023/12/06 02:59:07;;;;;;;18.10;7.45;;;;;;;1.51;100.00;100376.03;6080885;23;20029;-75
2023/12/06 03:01:33;;;;;;;7.78;7.07;;;;;;;0.46;100.00;100219.56;6110605;23;20043;-74
2023/12/06 03:04:00;;;;;;;8.43;6.60;;;;;;;1.18;100.00;100332.72;6077588;23;21676;-74
2023/12/06 03:06:26;;;;;;;7.07;6.50;;;;;;;1.08;100.00;100301.91;6100021;23;20124;-76
2023/12/06 03:08:53;;;;;;;6.55;6.03;;;;;;;0.84;100.00;100255.00;6068993;23;20089;-74
2023/12/06 03:11:19;;;;;;;7.28;6.57;;;;;;;1.49;100.00;100359.69;6111557;23;20030;-74
2023/12/06 03:13:45;;;;;;;14.57;6.03;;;;;;;1.44;100.00;100348.59;6076538;23;20096;-74
2023/12/06 03:16:13;;;;;;;7.07;6.47;;;;;;;1.07;100.00;100288.13;6110522;23;20622;-75
2023/12/06 03:18:40;;;;;;;9.00;8.25;;;;;;;1.18;100.00;100334.44;6053396;23;20018;-74
2023/12/06 03:21:07;;;;;;;8.40;7.55;;;;;;;1.46;100.00;100355.41;6107798;23;20026;-74
2023/12/06 03:23:33;;;;;;;6.22;5.65;;;;;;;0.18;100.00;100140.06;6078396;23;20078;-75
2023/12/06 03:25:59;;;;;;;6.65;6.15;;;;;;;1.45;100.00;100351.16;6104966;23;20108;-75
2023/12/06 03:28:26;;;;;;;7.95;7.03;;;;;;;1.24;100.00;100317.97;6082228;23;20049;-75
2023/12/06 03:30:52;;;;;;;6.03;5.45;;;;;;;0.81;100.00;100249.91;6109389;23;20035;-75
2023/12/06 03:33:19;;;;;;;8.35;7.47;;;;;;;0.74;100.00;100238.84;6083782;23;20500;-75
2023/12/06 03:35:45;;;;;;;6.60;5.78;;;;;;;0.32;100.00;100170.78;6078943;23;20044;-73
2023/12/06 03:38:12;;;;;;;6.43;5.85;;;;;;;1.03;100.00;100277.91;6080693;23;20022;-74
2023/12/06 03:40:39;;;;;;;13.43;9.57;;;;;;;0.61;100.00;100208.97;6107175;23;20473;-74
2023/12/06 03:43:05;;;;;;;9.82;8.38;;;;;;;0.76;100.00;100252.56;6076951;23;20026;-74
2023/12/06 03:45:31;;;;;;;8.95;8.02;;;;;;;-0.25;100.00;100076.38;6108718;23;20013;-74
2023/12/06 03:47:58;;;;;;;11.60;7.13;;;;;;;1.36;100.00;100346.16;6086942;23;20033;-74
2023/12/06 03:50:24;;;;;;;10.57;6.70;;;;;;;1.54;100.00;100368.19;6105483;23;20093;-73
2023/12/06 03:52:51;;;;;;;7.45;5.72;;;;;;;0.02;100.00;100123.16;6081847;23;20029;-74
2023/12/06 03:55:18;;;;;;;14.15;7.00;;;;;;;-0.41;100.00;100068.06;6082784;23;20039;-74
2023/12/06 03:57:44;;;;;;;7.35;6.60;;;;;;;1.06;100.00;100329.50;6081430;23;20085;-74
2023/12/06 04:00:13;;;;;;;11.35;7.15;;;;;;;0.83;100.00;100288.63;6080764;23;20018;-73
2023/12/06 04:02:40;;;;;;;9.25;8.55;;;;;;;1.53;100.00;100406.16;6103835;23;20086;-74
2023/12/06 04:05:08;;;;;;;5.97;5.38;;;;;;;0.37;100.00;100215.44;6052067;23;20026;-74
2023/12/06 04:07:34;;;;;;;10.32;7.53;;;;;;;0.30;100.00;100206.97;6109422;23;20456;-74
2023/12/06 04:10:01;;;;;;;8.05;6.35;;;;;;;0.87;100.00;100308.34;6080936;23;20028;-74
2023/12/06 04:12:27;;;;;;;7.03;6.35;;;;;;;0.98;100.00;100321.91;6107665;23;20104;-75
2023/12/06 04:14:54;;;;;;;7.80;6.85;;;;;;;1.26;100.00;100378.22;6078654;23;20060;-74
2023/12/06 04:17:21;;;;;;;12.00;5.95;;;;;;;0.88;100.00;100310.03;6119549;23;20045;-73
2023/12/06 04:19:47;;;;;;;7.85;6.38;;;;;;;1.08;100.00;100340.66;6081280;23;20516;-74
2023/12/06 04:22:14;;;;;;;7.78;7.07;;;;;;;0.61;100.00;100254.59;6105585;23;20052;-73
2023/12/06 04:24:40;;;;;;;11.00;9.77;;;;;;;1.13;100.00;100351.78;6078192;23;20389;-75
2023/12/06 04:27:07;;;;;;;9.18;6.50;;;;;;;1.54;100.00;100423.38;6113160;23;20837;-75
2023/12/06 04:29:34;;;;;;;6.60;6.03;;;;;;;1.10;100.00;100342.38;6078910;23;20117;-74
2023/12/06 04:32:00;;;;;;;10.32;8.63;;;;;;;0.94;100.00;100323.72;6110307;23;20416;-73
2023/12/06 04:34:26;;;;;;;9.38;7.03;;;;;;;1.25;100.00;100381.72;6071062;23;20026;-75
2023/12/06 04:36:54;;;;;;;11.45;6.40;;;;;;;1.62;100.00;100430.13;6104253;23;20020;-74
2023/12/06 04:39:23;;;;;;;7.88;7.15;;;;;;;1.70;100.00;100461.88;6080373;23;20033;-75
2023/12/06 04:41:51;;;;;;;12.60;6.93;;;;;;;1.30;100.00;100374.72;6107425;23;20025;-73
2023/12/06 04:44:17;;;;;;;16.05;8.63;;;;;;;1.66;100.00;100444.69;6077028;23;20026;-74
2023/12/06 04:46:48;;;;;;;9.07;7.30;;;;;;;1.71;100.00;100455.81;6109934;23;20037;-74
2023/12/06 04:49:14;;;;;;;7.82;7.18;;;;;;;1.53;100.00;100429.41;6072282;23;20044;-75
2023/12/06 04:51:41;;;;;;;9.45;6.35;;;;;;;1.23;100.00;100373.13;6106299;23;20045;-73
2023/12/06 04:54:07;;;;;;;7.05;6.35;;;;;;;1.84;100.00;100469.34;6081836;23;20033;-73
2023/12/06 04:56:34;;;;;;;9.75;6.97;;;;;;;0.78;100.00;100315.38;6101379;23;20036;-75
2023/12/06 04:59:00;;;;;;;6.90;6.20;;;;;;;1.64;100.00;100443.88;6084261;23;20057;-73
2023/12/06 05:01:27;;;;;;;7.18;6.63;;;;;;;0.57;100.00;100264.97;6091687;23;20053;-74
2023/12/06 05:03:53;;;;;;;12.75;7.57;;;;;;;1.18;100.00;100375.78;6055870;23;20010;-75
2023/12/06 05:06:20;;;;;;;10.57;7.10;;;;;;;1.15;100.00;100381.88;6106989;23;20604;-75
2023/12/06 05:08:46;;;;;;;6.95;5.38;;;;;;;1.06;100.00;100363.94;6064540;23;20024;-74
2023/12/06 05:11:13;;;;;;;8.57;6.32;;;;;;;1.85;100.00;100492.63;6112419;23;20700;-75
2023/12/06 05:13:39;;;;;;;18.67;6.50;;;;;;;1.96;100.00;100505.34;6074208;23;20026;-75
2023/12/06 05:16:06;;;;;;;10.38;7.38;;;;;;;1.28;100.00;100389.41;6110600;23;20029;-75
2023/12/06 05:18:32;;;;;;;10.07;8.93;;;;;;;0.92;100.00;100335.81;6076075;23;20049;-75
2023/12/06 05:20:59;;;;;;;5.68;4.72;;;;;;;1.24;100.00;100408.44;6112280;23;20033;-74
2023/12/06 05:23:25;;;;;;;6.78;5.65;;;;;;;1.58;100.00;100471.59;6081229;23;20018;-75
2023/12/06 05:25:52;;;;;;;8.82;7.15;;;;;;;0.95;100.00;100364.16;6105325;23;20028;-74
2023/12/06 05:28:18;;;;;;;7.30;6.03;;;;;;;0.94;100.00;100370.22;6049897;23;20087;-74
2023/12/06 05:30:45;;;;;;;8.93;8.02;;;;;;;0.65;100.00;100324.22;6102166;23;20009;-75
2023/12/06 05:33:11;;;;;;;6.18;5.60;;;;;;;1.35;100.00;100465.97;6078638;23;20049;-75
2023/12/06 05:35:38;;;;;;;5.07;4.78;;;;;;;1.62;100.00;100498.22;6080859;23;20028;-74
2023/12/06 05:38:04;;;;;;;10.00;6.30;;;;;;;1.06;100.00;100389.78;6075755;23;20014;-74
2023/12/06 05:40:32;;;;;;;8.43;7.65;;;;;;;1.59;100.00;100493.13;6106078;23;20028;-76
2023/12/06 05:42:58;;;;;;;8.93;7.30;;;;;;;1.84;100.00;100513.34;6079297;23;20092;-74
2023/12/06 05:45:25;;;;;;;7.63;7.03;;;;;;;0.51;100.00;100284.88;6096145;23;20857;-74
2023/12/06 05:47:51;;;;;;;11.13;6.88;;;;;;;1.53;100.00;100469.97;6065961;23;20078;-75
2023/12/06 05:50:17;;;;;;;7.80;7.15;;;;;;;1.44;100.00;100460.63;6102663;23;20373;-74
2023/12/06 05:52:44;;;;;;;11.25;7.35;;;;;;;1.38;100.00;100465.91;6051242;23;20093;-75
2023/12/06 05:55:10;;;;;;;11.32;6.63;;;;;;;1.98;100.00;100561.38;6106545;23;20530;-75
2023/12/06 05:57:37;;;;;;;9.65;5.80;;;;;;;2.01;100.00;100554.44;6079131;23;20021;-74
2023/12/06 06:00:09;;;;;;;7.28;6.53;;;;;;;1.07;100.00;100412.19;6107478;23;20025;-75
2023/12/06 06:02:36;;;;;;;;;;;;;;;2.05;100.00;100562.09;6047311;23;20032;-73
2023/12/06 06:05:03;;;;;;;6.13;5.57;;;;;;;1.44;100.00;100470.97;6104650;23;20019;-75
2023/12/06 06:07:29;;;;;;;6.57;5.90;;;;;;;2.01;100.00;100577.72;6073522;23;20755;-74
2023/12/06 06:09:56;;;;;;;7.07;6.47;;;;;;;1.16;100.00;100458.56;6108560;23;20028;-74
2023/12/06 06:12:30;;;;;;;5.65;5.20;;;;;;;1.52;100.00;100489.78;6062573;23;20113;-74
2023/12/06 06:14:56;;;;;;;9.27;8.30;;;;;;;2.12;100.00;100583.53;6094360;23;20077;-75
2023/12/06 06:17:23;;;;;;;7.78;4.55;;;;;;;0.70;100.00;100344.78;6078886;23;20054;-75
2023/12/06 06:19:50;;;;;;;5.30;4.90;;;;;;;1.64;100.00;100514.56;6108354;23;20013;-74
2023/12/06 06:22:17;;;;;;;5.55;5.15;;;;;;;2.02;100.00;100564.75;6082478;23;20378;-75
2023/12/06 06:24:43;;;;;;;8.63;8.02;;;;;;;1.25;100.00;100448.94;6081661;23;20030;-74
2023/12/06 06:27:10;;;;;;;5.93;5.53;;;;;;;0.94;100.00;100393.47;6083802;23;20031;-75
2023/12/06 06:29:37;;;;;;;9.40;5.00;;;;;;;2.08;100.00;100587.06;6089283;23;20076;-74
2023/12/06 06:32:04;;;;;;;10.63;6.75;;;;;;;1.13;100.00;100445.66;6082605;23;20109;-76
2023/12/06 06:34:30;;;;;;;7.90;7.07;;;;;;;1.72;100.00;100533.38;6107757;23;20033;-74
2023/12/06 06:36:57;;;;;;;7.38;6.88;;;;;;;1.51;100.00;100508.78;6080976;23;20480;-75
2023/12/06 06:39:23;;;;;;;6.43;5.93;;;;;;;1.88;100.00;100549.47;6106530;23;20029;-75
2023/12/06 06:41:50;;;;;;;8.48;7.50;;;;;;;1.94;100.00;100579.56;6091044;23;20020;-75
2023/12/06 06:44:16;;;;;;;7.43;6.65;;;;;;;1.62;100.00;100499.97;6118561;23;20029;-74
2023/12/06 06:46:43;;;;;;;9.70;8.85;;;;;;;2.19;100.00;100606.69;6080773;23;20030;-74
2023/12/06 06:49:09;;;;;;;7.93;7.10;;;;;;;2.16;100.00;100591.22;6108109;23;20135;-74
2023/12/06 06:51:37;;;;;;;8.48;6.28;;;;;;;2.14;100.00;100587.78;6084028;23;20644;-74
2023/12/06 06:54:06;;;;;;;9.63;6.38;;;;;;;1.48;100.00;100480.38;6109216;23;20026;-74
2023/12/06 06:56:33;;;;;;;9.23;8.15;;;;;;;1.51;100.00;100493.25;6079250;23;20485;-74
2023/12/06 06:59:02;;;;;;;5.57;5.13;;;;;;;2.20;100.00;100604.94;6117200;23;20116;-73
2023/12/06 07:01:29;;;;;;;5.88;5.47;;;;;;;2.02;100.00;100584.59;6079264;23;20092;-75
2023/12/06 07:03:55;;;;;;;7.78;7.07;;;;;;;1.54;100.00;100516.50;6110109;23;20071;-74
2023/12/06 07:06:22;;;;;;;8.82;6.55;;;;;;;2.01;100.00;100606.22;6084590;23;20026;-74
2023/12/06 07:08:49;;;;;;;6.68;5.95;;;;;;;1.46;100.00;100505.41;6100445;23;20062;-75
2023/12/06 07:11:16;;;;;;;6.28;5.68;;;;;;;1.91;100.00;100582.22;6082764;23;20433;-74
2023/12/06 07:13:42;;;;;;;8.40;6.95;;;;;;;2.01;100.00;100612.22;6084181;23;20005;-74
2023/12/06 07:16:12;;;;;;;8.18;5.70;;;;;;;0.70;100.00;100405.06;6086487;23;20026;-74
2023/12/06 07:18:38;;;;;;;9.50;8.85;;;;;;;2.25;100.00;100662.69;6106728;23;20039;-74
2023/12/06 07:21:05;;;;;;;11.52;6.55;;;;;;;1.20;100.00;100482.59;6086870;23;20085;-74
2023/12/06 07:23:32;;;;;;;6.82;5.65;;;;;;;1.77;100.00;100579.88;6115818;23;20025;-75
2023/12/06 07:25:58;;;;;;;8.00;7.30;;;;;;;2.06;100.00;100615.56;6082735;23;20029;-75
2023/12/06 07:28:25;;;;;;;6.47;5.85;;;;;;;2.32;100.00;100659.09;6109643;23;20082;-72
2023/12/06 07:30:52;;;;;;;7.22;6.57;;;;;;;2.36;100.00;100663.31;6077878;23;20059;-72
2023/12/06 07:33:19;;;;;;;7.53;5.22;;;;;;;2.08;100.00;100644.03;6100023;23;20017;-72
2023/12/06 07:35:45;;;;;;;6.95;5.30;;;;;;;1.17;100.00;100473.16;6070470;23;20060;-72
2023/12/06 07:38:13;;;;;;;7.32;6.63;;;;;;;1.98;100.00;100602.78;6106209;23;20048;-71
2023/12/06 07:40:39;;;;;;;8.43;7.70;;;;;;;2.45;100.00;100670.09;6076526;23;20064;-71
2023/12/06 07:43:08;;;;;;;7.13;6.30;;;;;;;2.39;100.00;100665.88;6088206;23;20488;-71
2023/12/06 07:45:34;;;;;;;8.93;8.07;;;;;;;1.93;100.00;100590.81;6051898;23;20048;-72
2023/12/06 07:48:02;;;;;;;6.25;5.63;;;;;;;2.44;100.00;100677.88;6107993;23;20051;-72
2023/12/06 07:50:29;;;;;;;7.07;6.53;;;;;;;2.49;100.00;100674.34;6076440;23;20083;-73
2023/12/06 07:52:55;;;;;;;6.63;5.75;;;;;;;0.72;100.00;100394.69;6102876;23;20603;-72
2023/12/06 07:55:22;;;;;;;7.32;6.15;;;;;;;2.45;100.00;100674.44;6077010;23;20089;-72
2023/12/06 07:57:53;;;;;;;5.57;5.07;;;;;;;2.51;100.00;100690.69;6083984;23;20025;-73
2023/12/06 08:00:19;;;;;;;6.13;5.63;;;;;;;1.70;100.00;100562.75;6081062;23;20017;-72
2023/12/06 08:02:46;;;;;;;5.60;5.30;;;;;;;2.52;100.00;100697.56;6105326;23;20179;-73
2023/12/06 08:05:12;;;;;;;6.00;5.57;;;;;;;2.53;100.00;100703.63;6081996;23;20084;-72
2023/12/06 08:07:39;;;;;;;6.22;5.53;;;;;;;2.20;100.00;100661.91;6105176;23;20029;-73
2023/12/06 08:10:19;;;;;;;6.28;5.60;;;;;;;2.04;100.00;100622.50;6082177;23;20036;-73
2023/12/06 08:12:45;;;;;;;12.82;7.15;;;;;;;2.63;100.00;100720.69;6075110;23;20150;-72
2023/12/06 08:15:12;;;;;;;4.90;4.65;;;;;;;2.71;100.00;100734.34;6105969;23;20006;-73
2023/12/06 08:17:38;;;;;;;6.50;5.95;;;;;;;2.15;100.00;100643.03;5997785;23;20085;-72
2023/12/06 08:20:07;;;;;;;10.88;6.38;;;;;;;1.88;100.00;100610.72;6081019;23;20037;-73
2023/12/06 08:22:33;;;;;;;11.77;7.65;;;;;;;2.69;100.00;100735.28;6079006;23;20051;-73
2023/12/06 08:25:00;;;;;;;6.50;5.43;;;;;;;1.40;100.00;100518.44;6105867;23;20014;-73
2023/12/06 08:27:28;;;;;;;8.30;6.55;;;;;;;2.77;100.00;100739.41;6058199;23;20330;-73
2023/12/06 08:29:55;;;;;;;5.38;4.97;;;;;;;2.61;100.00;100725.06;6101796;23;20724;-73
2023/12/06 08:32:22;;;;;;;7.05;6.55;;;;;;;2.79;100.00;100753.19;6079341;23;20096;-73
2023/12/06 08:34:50;;;;;;;7.13;6.53;;;;;;;2.25;100.00;100660.09;6111101;23;20047;-73
2023/12/06 08:37:17;;;;;;;5.57;5.13;;;;;;;2.62;100.00;100723.31;6081342;23;20095;-73
2023/12/06 08:39:44;;;;;;;8.82;5.25;;;;;;;2.79;100.00;100747.16;6103814;23;20025;-72
2023/12/06 08:42:17;;;;;;;6.10;5.55;;;;;;;2.49;100.00;100702.81;6077389;23;20037;-73
2023/12/06 08:44:44;;;;;;;6.75;6.35;;;;;;;2.53;100.00;100716.56;6103108;23;20530;-73
2023/12/06 08:47:14;;;;;;;7.28;6.57;;;;;;;2.85;100.00;100754.81;6077727;23;20031;-73
2023/12/06 08:49:41;;;;;;;6.88;6.32;;;;;;;2.60;100.00;100719.00;6104777;23;20022;-72
2023/12/06 08:52:08;;;;;;;5.82;5.32;;;;;;;2.85;100.00;100759.16;6076022;23;20029;-72
2023/12/06 08:54:35;;;;;;;6.45;6.00;;;;;;;1.83;100.00;100592.72;6092817;23;20025;-72
2023/12/06 08:57:02;;;;;;;11.23;5.82;;;;;;;2.87;100.00;100768.63;6078869;23;20030;-72
2023/12/06 08:59:29;;;;;;;9.82;6.00;;;;;;;2.71;100.00;100733.50;6105675;23;20029;-74
2023/12/06 09:01:56;;;;;;;7.50;6.53;;;;;;;2.56;100.00;100719.09;6078238;23;20026;-74
2023/12/06 09:04:22;;;;;;;6.15;5.63;;;;;;;2.43;100.00;100689.16;6109220;23;20021;-73
2023/12/06 09:06:49;;;;;;;6.45;5.85;;;;;;;3.03;100.00;100783.84;6075040;23;20018;-73
2023/12/06 09:09:17;;;;;;;5.82;5.30;;;;;;;3.03;100.00;100823.63;6107571;23;20504;-73
2023/12/06 09:11:44;;;;;;;10.32;6.95;;;;;;;3.13;100.00;100788.84;6077101;23;20081;-74
2023/12/06 09:14:10;;;;;;;5.95;5.47;;;;;;;2.78;100.00;100727.31;6076591;23;20050;-72
2023/12/06 09:16:38;;;;;;;7.95;7.15;;;;;;;3.18;100.00;100786.16;6062558;23;20365;-74
2023/12/06 09:19:04;;;;;;;6.80;4.90;;;;;;;2.58;100.00;100673.28;6103759;23;20018;-73
2023/12/06 09:21:40;;;;;;;5.85;5.13;;;;;;;3.24;100.00;100790.34;6055602;23;20038;-73
2023/12/06 09:24:10;;;;;;;6.95;6.25;;;;;;;1.95;100.00;100582.13;6080864;23;20029;-74
2023/12/06 09:26:37;;;;;;;7.05;6.55;;;;;;;2.58;100.00;100675.88;6073053;23;20061;-73
2023/12/06 09:29:08;;;;;;;7.07;6.38;;;;;;;3.29;100.00;100789.38;6103652;23;20088;-71
2023/12/06 09:31:36;;;;;;;5.43;5.13;;;;;;;3.21;100.00;100767.94;6075749;23;20034;-71
2023/12/06 09:34:04;;;;;;;7.28;6.57;;;;;;;3.32;100.00;100788.47;6106510;23;20045;-71
2023/12/06 09:36:31;;;;;;;9.80;6.35;;;;;;;3.31;100.00;100791.97;6052819;23;20040;-72
2023/12/06 09:38:58;;;;;;;5.75;5.15;;;;;;;3.12;100.00;100758.59;6111752;23;20025;-72
2023/12/06 09:41:28;;;;;;;6.28;5.70;;;;;;;2.99;100.00;100729.47;6078321;23;20041;-72
2023/12/06 09:43:56;;;;;;;9.70;7.05;;;;;;;3.26;100.00;100775.63;6101334;23;20029;-72
2023/12/06 09:46:23;;;;;;;9.95;6.95;;;;;;;2.88;100.00;100720.22;6076741;23;20057;-72
2023/12/06 09:48:52;;;;;;;7.32;6.72;;;;;;;3.36;100.00;100795.28;6079180;23;20013;-71
2023/12/06 09:51:20;;;;;;;7.70;7.00;;;;;;;3.16;100.00;100768.00;6079844;23;20030;-72
2023/12/06 09:53:47;;;;;;;5.32;4.93;;;;;;;3.50;100.00;100814.00;6106710;23;20100;-72
2023/12/06 09:56:13;;;;;;;8.32;5.93;;;;;;;3.12;100.00;100749.97;6076767;23;20053;-71
2023/12/06 09:58:40;;;;;;;6.55;6.15;;;;;;;3.29;100.00;100827.44;6103853;23;20097;-71
2023/12/06 10:01:08;;;;;;;5.60;5.07;;;;;;;3.53;100.00;100805.31;6049294;23;20343;-72
2023/12/06 10:03:34;;;;;;;6.18;5.03;;;;;;;2.79;100.00;100675.47;6103971;23;20025;-74
2023/12/06 10:06:04;;;;;;;5.40;5.00;;;;;;;3.56;100.00;100798.31;6076694;23;20473;-73
2023/12/06 10:08:34;;;;;;;7.35;6.68;;;;;;;3.59;100.00;100795.66;6099500;23;20026;-76
2023/12/06 10:11:01;;;;;;;7.57;6.97;;;;;;;3.72;100.00;100796.22;6077183;23;20059;-72
2023/12/06 10:13:35;;;;;;;5.55;5.10;;;;;;;2.46;100.00;100582.88;6102247;23;20025;-77
2023/12/06 10:16:02;;;;;;;13.13;7.45;;;;;;;3.15;100.00;100690.28;6065362;23;20705;-71
2023/12/06 10:18:31;;;;;;;7.15;6.55;;;;;;;3.40;100.00;100735.50;6061133;23;20041;-76
2023/12/06 10:20:58;;;;;;;8.88;8.02;;;;;;;3.70;100.00;100776.41;6095558;23;20026;-72
2023/12/06 10:23:24;;;;;;;13.05;6.90;;;;;;;3.69;100.00;100767.75;6074536;23;20021;-71
2023/12/06 10:25:51;;;;;;;6.82;6.30;;;;;;;3.75;100.00;100764.19;6079441;23;20024;-71
2023/12/06 10:28:18;;;;;;;5.68;4.93;;;;;;;3.46;100.00;100705.16;6072397;23;20500;-74
2023/12/06 10:30:45;;;;;;;9.05;8.25;;;;;;;1.58;100.00;100409.50;6101853;23;20029;-71
2023/12/06 10:33:12;;;;;;;9.75;7.20;;;;;;;3.82;100.00;100746.72;6071760;23;20054;-72
2023/12/06 10:35:40;;;;;;;6.05;5.65;;;;;;;3.62;100.00;100696.13;6105121;23;20028;-72
2023/12/06 10:38:07;;;;;;;11.38;6.25;;;;;;;2.64;100.00;100537.59;6073074;23;20100;-72
2023/12/06 10:40:33;;;;;;;8.43;7.50;;;;;;;3.84;100.00;100725.00;6088508;23;20049;-71
2023/12/06 10:43:06;;;;;;;6.82;6.30;;;;;;;2.32;100.00;100479.56;6064957;23;20033;-75
2023/12/06 10:45:33;;;;;;;7.65;6.05;;;;;;;3.52;100.00;100679.91;6119411;23;20025;-77
2023/12/06 10:48:04;;;;;;;8.07;6.65;;;;;;;3.62;100.00;100684.91;6052490;23;22385;-73
2023/12/06 10:50:31;;;;;;;10.25;7.35;;;;;;;3.50;100.00;100663.53;6099294;23;20092;-74
2023/12/06 10:53:00;;;;;;;5.28;4.97;;;;;;;3.94;100.00;100736.03;6075812;23;20058;-73
2023/12/06 10:55:32;;;;;;;5.40;5.10;;;;;;;3.12;100.00;100599.56;6101555;23;20152;-69
2023/12/06 10:58:00;;;;;;;7.22;5.38;;;;;;;3.87;100.00;100716.28;6077868;23;20030;-75
2023/12/06 11:00:27;;;;;;;6.32;5.88;;;;;;;2.79;100.00;100517.38;6081336;23;20025;-71
2023/12/06 11:02:55;;;;;;;8.30;6.80;;;;;;;3.87;100.00;100696.41;6087139;23;20041;-73
2023/12/06 11:05:24;;;;;;;6.50;5.38;;;;;;;4.06;100.00;100719.31;6079039;23;20092;-76
2023/12/06 11:08:27;;;;;;;11.20;6.10;;;;;;;3.33;100.00;100603.44;6107508;23;20031;-73
2023/12/06 11:11:06;;;;;;;7.18;6.68;;;;;;;4.16;100.00;100720.78;6084972;23;20718;-70
2023/12/06 11:13:45;;;;;;;6.82;6.18;;;;;;;3.70;100.00;100654.41;6105965;23;20059;-74
2023/12/06 11:16:53;;;;;;;10.57;7.05;;;;;;;4.24;100.00;100715.38;6080652;23;20700;-75
2023/12/06 11:19:20;;;;;;;7.60;6.88;;;;;;;3.33;100.00;100551.56;6108244;23;20027;-74
2023/12/06 11:21:47;;;;;;;7.88;7.18;;;;;;;3.76;100.00;100610.97;6078711;23;20029;-74
2023/12/06 11:24:15;;;;;;;6.30;5.80;;;;;;;3.59;100.00;100582.88;6078835;23;20028;-73